Latest Weather Observations for Williamtown

IDN60801

Issued at 4:33 pm EST Sunday 24 July 2016 (issued every 30 minutes, with the page automatically refreshed every 10 minutes)

About weather observations | Map of weather stations | Latest weather observations for NSW | Other Formats
Station Details ID: 061078 Name: WILLIAMTOWN RAAF Lat: -32.79 Lon: 151.84 Height: 9.0 m
Data from the previous 72 hours. | See also: Recent months at Williamtown
Date/Time
EST
Temp
°C
App
Temp
°C
Dew
Point
°C
Rel
Hum
%
Delta-T
°C
Wind Press
QNH
hPa
Press
MSL
hPa
Rain since
9am
mm
Dir  Spd
km/h
Gust
km/h
Spd
kts
Gust
kts
24/04:30pm 11.1 5.0 -2.4 39 5.2 WNW 20 28 11 15 1013.7 1013.7 0.0
24/04:00pm 11.4 5.3 -2.3 38 5.3 WNW 20 28 11 15 1013.7 1013.7 0.0
24/03:30pm 11.4 5.9 -1.9 39 5.2 W 17 30 9 16 1013.8 1013.8 0.0
24/03:00pm 11.7 4.7 -3.8 33 5.8 WNW 24 32 13 17 1013.7 1013.7 0.0
24/02:50pm 11.8 4.8 -3.2 35 5.7 WNW 24 33 13 18 1013.7 1013.7 0.0
24/02:32pm 12.2 5.6 -2.9 35 5.8 WNW 22 30 12 16 1013.5 1013.5 0.0
24/02:30pm 12.1 5.9 -3.0 35 5.8 WNW 20 28 11 15 1013.5 1013.5 0.0
24/02:00pm 11.8 4.7 -4.0 33 5.9 WNW 24 32 13 17 1013.4 1013.4 0.0
24/01:30pm 11.6 4.5 -4.4 32 5.9 NW 24 33 13 18 1013.9 1013.9 0.0
24/01:00pm 11.7 3.9 -3.4 34 5.7 WNW 28 39 15 21 1015.1 1015.1 0.0
24/12:30pm 11.5 3.8 -3.3 35 5.6 WNW 28 39 15 21 1015.5 1015.5 0.0
24/12:00pm 11.4 5.3 -2.7 37 5.4 WNW 20 28 11 15 1016.1 1016.1 0.0
24/11:30am 11.0 5.4 -3.0 37 5.3 WNW 17 26 9 14 1016.6 1016.6 0.0
24/11:00am 11.3 5.0 -1.0 42 4.9 WNW 22 28 12 15 1016.8 1016.8 0.0
24/10:30am 10.7 4.0 -1.3 43 4.7 WNW 24 30 13 16 1017.0 1017.0 0.0
24/10:00am 10.4 4.7 -0.4 47 4.3 WNW 19 24 10 13 1016.8 1016.8 0.0
24/09:30am 10.2 4.8 1.3 54 3.7 WNW 19 26 10 14 1016.9 1016.9 0.0
24/09:00am 8.8 3.8 1.2 59 3.1 NW 17 20 9 11 1016.7 1016.7 0.0
24/08:30am 8.4 3.2 0.0 55 3.3 WNW 17 22 9 12 1016.6 1016.6 0.0
24/08:00am 7.5 3.0 2.2 69 2.2 WNW 15 19 8 10 1016.2 1016.2 0.0
24/07:30am 3.7 1.7 2.2 90 0.6 NW 2 9 1 5 1016.2 1016.2 0.0
24/07:00am 3.1 0.6 1.8 91 0.5 NW 4 9 2 5 1016.1 1016.1 0.0
24/06:30am 4.0 0.6 1.7 85 0.9 WNW 9 13 5 7 1016.1 1016.1 0.0
24/06:00am 4.7 0.9 1.7 81 1.2 NW 11 13 6 7 1016.4 1016.4 0.0
24/05:30am 5.9 2.1 1.6 74 1.7 NW 11 13 6 7 1015.9 1015.9 0.0
24/05:00am 6.4 2.0 2.8 78 1.5 NW 15 22 8 12 1015.6 1015.6 0.0
24/04:30am 6.8 2.8 3.0 77 1.6 NW 13 19 7 10 1015.3 1015.3 0.0
24/04:00am 6.6 2.3 3.0 78 1.5 WNW 15 19 8 10 1015.1 1015.1 0.0
24/03:30am 7.5 2.8 3.0 73 1.9 WNW 17 19 9 10 1015.0 1015.0 0.0
24/03:00am 7.4 3.4 2.9 73 1.9 WNW 13 15 7 8 1015.3 1015.3 0.0
24/02:30am 8.4 4.4 3.0 69 2.3 WNW 13 17 7 9 1015.0 1015.0 0.0
24/02:00am 8.9 4.6 3.0 66 2.5 WNW 15 20 8 11 1014.7 1014.7 0.0
24/01:30am 9.1 4.3 2.7 64 2.7 WNW 17 22 9 12 1014.8 1014.8 0.0
24/01:00am 9.5 4.3 2.7 62 2.9 WNW 19 26 10 14 1014.7 1014.7 0.0
24/12:30am 9.9 5.1 2.4 59 3.2 WNW 17 24 9 13 1014.4 1014.4 0.0
24/12:00am 9.8 4.4 2.5 60 3.1 WNW 20 26 11 14 1014.4 1014.4 0.0
 
Date/Time
EST
Temp
°C
App
Temp
°C
Dew
Point
°C
Rel
Hum
%
Delta-T
°C
Wind Press
QNH
hPa
Press
MSL
hPa
Rain since
9am
mm
Dir  Spd
km/h
Gust
km/h
Spd
kts
Gust
kts
23/11:30pm 10.0 4.6 2.2 58 3.3 WNW 20 28 11 15 1014.1 1014.1 0.0
23/11:00pm 10.3 3.7 2.0 56 3.5 WNW 26 35 14 19 1013.5 1013.5 0.0
23/10:30pm 10.8 4.9 1.8 54 3.8 WNW 22 33 12 18 1013.7 1013.7 0.0
23/10:00pm 11.0 4.7 1.8 53 3.9 WNW 24 32 13 17 1013.1 1013.1 0.0
23/09:30pm 11.1 4.4 1.6 52 4.0 WNW 26 35 14 19 1012.7 1012.7 0.0
23/09:00pm 11.3 6.3 1.3 50 4.2 W 17 26 9 14 1012.1 1012.1 0.0
23/08:30pm 11.8 5.8 1.1 48 4.5 W 22 32 12 17 1012.0 1012.0 0.0
23/08:00pm 12.3 6.7 0.9 45 4.8 WNW 20 32 11 17 1011.3 1011.3 0.0
23/07:30pm 12.4 4.4 0.7 44 4.9 WNW 32 50 17 27 1010.6 1010.6 0.0
23/07:05pm 12.9 4.3 0.5 42 5.2 WNW 35 54 19 29 1010.0 1010.0 0.0
23/07:00pm 12.9 4.7 0.5 42 5.2 WNW 33 46 18 25 1009.9 1009.9 0.0
23/06:40pm 13.2 5.2 0.6 42 5.3 WNW 32 50 17 27 1009.9 1009.9 0.0
23/06:30pm 13.3 4.0 0.5 41 5.4 WNW 39 52 21 28 1009.6 1009.6 0.0
23/06:00pm 13.9 4.5 0.1 39 5.8 WNW 39 56 21 30 1009.1 1009.1 0.0
23/05:53pm 13.7 4.4 0.4 40 5.6 WNW 39 57 21 31 1009.0 1009.0 0.0
23/05:30pm 14.3 4.5 0.0 37 6.0 WNW 41 54 22 29 1008.5 1008.5 0.0
23/05:00pm 15.1 4.3 -0.3 35 6.5 WNW 46 61 25 33 1007.5 1007.5 0.0
23/04:30pm 16.0 4.8 -0.6 32 7.0 WNW 48 76 26 41 1006.9 1006.9 0.0
23/04:00pm 16.7 5.0 -1.5 29 7.6 WNW 50 70 27 38 1006.1 1006.1 0.0
23/03:30pm 17.1 3.6 -2.3 26 8.0 WNW 59 82 32 44 1005.1 1005.1 0.0
23/03:00pm 17.7 3.9 -1.9 26 8.2 WNW 61 83 33 45 1004.8 1004.8 0.0
23/02:30pm 17.7 4.2 -2.3 25 8.2 WNW 59 82 32 44 1004.5 1004.5 0.0
23/02:00pm 18.1 3.9 -1.9 25 8.4 WNW 63 83 34 45 1003.9 1003.9 0.0
23/01:30pm 18.3 6.1 -2.3 24 8.5 WNW 52 76 28 41 1004.1 1004.1 0.0
23/01:00pm 18.1 5.0 -2.3 25 8.5 WNW 57 91 31 49 1004.2 1004.2 0.0
23/12:30pm 18.4 5.7 -0.6 27 8.2 WNW 56 76 30 41 1004.5 1004.5 0.0
23/12:00pm 18.1 5.2 -2.4 24 8.5 WNW 56 76 30 41 1004.7 1004.7 0.0
23/11:32am 18.1 5.7 -1.1 27 8.1 WNW 54 78 29 42 1004.6 1004.6 0.0
23/11:30am 18.4 6.1 -0.6 27 8.2 NW 54 70 29 38 1004.6 1004.6 0.0
23/11:00am 17.9 5.2 -0.8 28 8.0 WNW 56 78 30 42 1004.7 1004.7 0.0
23/10:30am 18.1 6.2 -0.4 28 8.0 WNW 52 70 28 38 1005.0 1005.0 0.0
23/10:00am 18.1 6.6 -0.4 28 8.0 WNW 50 72 27 39 1005.0 1005.0 0.0
23/09:30am 18.0 6.6 0.5 30 7.7 WNW 50 69 27 37 1004.7 1004.7 0.0
23/09:00am 17.8 8.3 1.6 33 7.3 WNW 41 63 22 34 1004.8 1004.8 0.0
23/08:38am 17.4 8.8 2.5 37 6.8 WNW 37 56 20 30 1004.8 1004.8 0.0
23/08:30am 17.2 8.1 1.9 35 6.9 WNW 39 56 21 30 1004.8 1004.8 0.0
23/08:14am 17.0 8.8 2.8 38 6.5 WNW 35 57 19 31 1004.6 1004.6 0.0
23/08:00am 16.8 8.9 2.5 38 6.5 WNW 33 44 18 24 1004.4 1004.4 0.0
23/07:30am 16.1 8.9 2.9 41 6.0 WNW 30 43 16 23 1003.9 1003.9 0.0
23/07:00am 15.9 8.3 3.0 42 5.9 WNW 32 50 17 27 1003.3 1003.3 0.0
23/06:51am 16.1 8.5 3.0 41 6.0 WNW 32 50 17 27 1003.0 1003.0 0.0
23/06:30am 16.0 9.2 3.1 42 5.9 WNW 28 41 15 22 1002.4 1002.4 0.0
23/06:00am 16.9 9.2 2.1 37 6.7 WNW 32 50 17 27 1001.7 1001.7 0.0
23/05:30am 17.1 10.3 3.3 39 6.4 W 28 39 15 21 1001.1 1001.1 0.0
23/05:00am 17.2 11.6 5.2 45 5.8 WNW 24 35 13 19 1000.3 1000.3 0.0
23/04:31am 17.6 10.0 5.8 46 5.7 W 35 54 19 29 999.6 999.6 0.0
23/04:30am 17.6 9.6 5.8 46 5.7 W 37 54 20 29 999.6 999.6 0.0
23/04:00am 18.4 9.9 9.1 54 4.9 WSW 44 67 24 36 999.2 999.2 0.0
23/03:53am 18.8 11.0 9.8 56 4.8 WSW 41 61 22 33 998.8 998.8 0.0
23/03:50am 19.2 11.1 10.8 58 4.6 WSW 44 74 24 40 998.6 998.6 0.0
23/03:43am 20.7 11.9 10.9 53 5.4 WNW 48 74 26 40 998.2 998.2 0.0
23/03:42am 21.6 13.2 11.0 51 5.8 WNW 46 70 25 38 998.2 998.2 0.0
23/03:30am 24.1 16.0 12.0 46 6.9 WNW 46 65 25 35 997.5 997.5 0.0
23/03:08am 24.1 16.1 12.3 47 6.7 NW 46 67 25 36 997.1 997.1 0.0
23/03:00am 24.2 16.8 12.4 47 6.8 NW 43 59 23 32 997.0 997.0 0.0
23/02:30am 24.5 17.1 12.6 47 6.8 NW 43 61 23 33 997.3 997.3 0.0
23/02:00am 25.0 16.9 11.9 44 7.5 NW 46 74 25 40 997.2 997.2 0.0
23/01:30am 24.6 17.8 12.0 45 7.2 NW 39 61 21 33 997.6 997.6 0.0
23/01:05am 24.7 19.1 12.2 45 7.1 NW 33 56 18 30 998.0 998.0 0.0
23/01:00am 24.7 19.3 12.2 45 7.2 NW 32 46 17 25 998.2 998.2 0.0
23/12:30am 24.2 19.9 11.9 46 7.0 NW 26 39 14 21 998.5 998.5 0.0
23/12:00am 23.9 20.1 12.4 48 6.6 NNW 24 35 13 19 998.6 998.6 0.0
 
Date/Time
EST
Temp
°C
App
Temp
°C
Dew
Point
°C
Rel
Hum
%
Delta-T
°C
Wind Press
QNH
hPa
Press
MSL
hPa
Rain since
9am
mm
Dir  Spd
km/h
Gust
km/h
Spd
kts
Gust
kts
22/11:30pm 24.0 19.6 12.8 49 6.4 NNW 28 39 15 21 999.0 999.0 0.0
22/11:00pm 23.0 20.0 13.8 56 5.4 NNW 22 33 12 18 999.3 999.3 0.0
22/10:30pm 22.7 20.7 15.0 61 4.6 NNW 19 28 10 15 1000.8 1000.8 0.0
22/10:00pm 22.5 20.5 14.9 62 4.5 NW 19 32 10 17 1001.4 1001.4 0.0
22/09:30pm 22.7 20.1 14.8 61 4.7 NNW 22 33 12 18 1001.7 1001.7 0.0
22/09:00pm 22.0 20.2 14.5 62 4.4 NNW 17 28 9 15 1002.3 1002.3 0.0
22/08:30pm 21.2 20.5 14.2 64 4.1 NNW 11 15 6 8 1002.7 1002.7 0.0
22/08:00pm 22.1 20.5 13.9 59 4.8 NNW 15 19 8 10 1002.5 1002.5 0.0
22/07:30pm 22.2 20.2 13.8 59 4.9 NNW 17 26 9 14 1002.2 1002.2 0.0
22/07:00pm 22.8 19.8 13.7 56 5.3 NNW 22 35 12 19 1002.9 1002.9 0.0
22/06:30pm 22.7 19.9 14.2 58 5.0 NNW 22 32 12 17 1003.0 1003.0 0.0
22/06:00pm 22.6 20.1 14.1 58 5.0 NNW 20 30 11 16 1003.3 1003.3 0.0
22/05:30pm 22.7 20.2 14.2 58 5.0 NNW 20 30 11 16 1003.0 1003.0 0.0
22/05:00pm 23.4 20.5 13.9 55 5.6 NNW 22 32 12 17 1002.9 1002.9 0.0
22/04:30pm 23.8 20.1 13.9 54 5.8 NW 26 35 14 19 1003.1 1003.1 0.0
22/04:00pm 24.2 20.9 14.0 53 6.0 NW 24 33 13 18 1003.5 1003.5 0.0
22/03:30pm 25.3 22.8 14.0 49 6.7 NW 20 35 11 19 1003.8 1003.8 0.0
22/03:00pm 25.8 22.3 13.4 46 7.3 NNW 24 33 13 18 1004.2 1004.2 0.0
22/02:30pm 25.8 20.7 13.0 45 7.5 NW 32 46 17 25 1004.4 1004.4 0.0
22/02:05pm 25.9 19.0 12.9 44 7.6 NW 41 59 22 32 1004.5 1004.5 0.0
22/02:00pm 26.1 18.8 12.7 43 7.8 NW 43 59 23 32 1004.5 1004.5 0.0
22/01:44pm 25.7 20.4 12.6 44 7.6 NW 32 50 17 27 1004.7 1004.7 0.0
22/01:30pm 25.2 22.3 13.9 49 6.7 NNW 22 32 12 17 1005.2 1005.2 0.0
22/01:00pm 24.1 21.1 14.7 55 5.6 NNW 24 33 13 18 1005.8 1005.8 0.0
22/12:30pm 24.0 21.6 14.4 55 5.7 NNW 20 33 11 18 1006.7 1006.7 0.0
22/12:00pm 22.3 21.3 15.6 66 4.0 N 15 22 8 12 1007.7 1007.8 0.0
22/11:30am 21.1 20.0 15.2 69 3.5 N 15 19 8 10 1008.8 1008.8 0.0
22/11:00am 19.2 17.5 14.7 75 2.6 NNW 17 22 9 12 1009.9 1009.9 0.0
22/10:30am 19.8 18.0 14.5 71 3.1 WNW 17 28 9 15 1010.7 1010.7 0.0
22/10:00am 17.6 15.5 13.7 78 2.2 NW 17 24 9 13 1011.4 1011.4 0.0
22/09:30am 16.3 13.8 13.5 83 1.6 NW 19 24 10 13 1011.6 1011.6 0.0
22/09:00am 15.1 12.3 13.1 88 1.1 NW 20 24 11 13 1011.8 1011.8 0.0
22/08:30am 14.2 12.3 12.9 92 0.7 NW 15 19 8 10 1012.0 1012.0 0.0
22/08:00am 12.7 10.1 12.1 96 0.3 NW 17 19 9 10 1012.2 1012.2 0.0
22/07:30am 11.8 9.0 11.4 97 0.2 NW 17 20 9 11 1012.2 1012.2 0.0
22/07:00am 11.2 8.4 11.2 100 0.0 NW 17 19 9 10 1012.4 1012.4 0.0
22/06:30am 11.3 9.2 11.1 99 0.1 NW 13 17 7 9 1012.4 1012.4 0.0
22/06:29am 11.2 9.1 11.2 100 0.0 NW 13 17 7 9 1012.4 1012.4 0.0
22/06:25am 11.1 9.4 11.1 100 0.0 NW 11 13 6 7 1012.5 1012.5 0.0
22/06:00am 10.8 9.7 10.8 100 0.0 NNW 7 7 4 4 1012.6 1012.6 0.0
22/05:30am 10.9 9.9 10.9 100 0.0 NNW 7 9 4 5 1012.5 1012.5 0.0
22/05:00am 11.1 10.1 11.1 100 0.0 N 7 9 4 5 1012.7 1012.7 0.0
22/04:30am 11.3 10.0 11.3 100 0.0 N 9 11 5 6 1012.7 1012.7 0.0
22/04:00am 11.1 9.7 10.9 99 0.1 NNW 9 9 5 5 1013.3 1013.3 0.0
22/03:36am 10.7 9.6 10.5 99 0.1 NW 7 7 4 4 1013.6 1013.6 0.0
22/03:30am 10.8 9.7 10.6 99 0.1 NW 7 9 4 5 1013.8 1013.8 0.0
22/03:13am 11.6 10.3 11.4 99 0.1 NNW 9 11 5 6 1013.8 1013.8 0.0
22/03:00am 11.5 10.3 11.5 100 0.0 NW 9 9 5 5 1013.9 1013.9 0.0
22/02:34am 11.8 9.8 11.6 99 0.1 NW 13 15 7 8 1014.0 1014.0 0.0
22/02:31am 11.7 9.7 11.5 99 0.1 NW 13 15 7 8 1014.1 1014.1 0.0
22/02:30am 11.7 10.1 11.5 99 0.1 NW 11 13 6 7 1014.1 1014.1 0.0
22/02:00am 11.2 9.4 11.0 99 0.1 NNW 11 15 6 8 1014.2 1014.2 0.0
22/01:58am 11.0 9.1 10.6 97 0.2 NNW 11 13 6 7 1014.2 1014.2 0.0
22/01:30am 11.0 10.0 11.0 100 0.0 NNW 7 9 4 5 1014.8 1014.8 0.0
22/01:00am 11.1 10.1 10.9 99 0.1 NNW 7 9 4 5 1015.1 1015.1 0.0
22/12:30am 11.2 10.1 10.8 97 0.2 NW 7 7 4 4 1015.2 1015.2 0.0
22/12:22am 11.2 9.8 10.8 97 0.2 WNW 9 9 5 5 1015.4 1015.4 0.0
22/12:00am 11.0 9.9 10.8 99 0.1 WNW 7 11 4 6 1015.8 1015.8 0.0
 
Date/Time
EST
Temp
°C
App
Temp
°C
Dew
Point
°C
Rel
Hum
%
Delta-T
°C
Wind Press
QNH
hPa
Press
MSL
hPa
Rain since
9am
mm
Dir  Spd
km/h
Gust
km/h
Spd
kts
Gust
kts
21/11:30pm 11.1 10.6 10.7 97 0.2 NW 4 9 2 5 1016.1 1016.1 0.0
21/11:00pm 11.4 11.7 11.0 97 0.2 CALM 0 0 0 0 1016.1 1016.1 0.0
21/10:55pm 11.6 12.0 11.2 97 0.2 CALM 0 0 0 0 1016.0 1016.0 0.0
21/10:34pm 11.8 11.9 11.4 97 0.2 NNE 2 6 1 3 1016.2 1016.2 0.0
21/10:30pm 11.8 11.5 11.6 99 0.1 NNE 4 7 2 4 1016.3 1016.3 0.0
21/10:00pm 12.2 11.4 11.8 97 0.2 NNE 7 7 4 4 1016.4 1016.4 0.0
21/09:36pm 12.7 13.4 12.1 96 0.3 CALM 0 0 0 0 1016.7 1016.7 0.0
21/09:30pm 12.9 13.6 12.3 96 0.3 CALM 0 0 0 0 1016.8 1016.8 0.0
21/09:16pm 12.6 13.2 12.0 96 0.3 CALM 0 0 0 0 1016.9 1016.9 0.0
21/09:00pm 13.1 12.7 12.4 95 0.4 NNE 6 7 3 4 1016.9 1016.9 0.0
21/08:30pm 13.6 13.2 13.1 97 0.3 NNE 7 9 4 5 1016.9 1016.9 0.0
21/08:00pm 13.9 14.9 13.2 96 0.4 CALM 0 0 0 0 1016.5 1016.5 0.0
21/07:30pm 13.5 14.0 12.8 95 0.4 NE 2 6 1 3 1016.3 1016.3 0.0
21/07:00pm 13.8 14.3 12.9 94 0.5 NNE 2 7 1 4 1016.1 1016.1 0.0
21/06:30pm 13.6 13.4 12.9 95 0.4 N 6 7 3 4 1016.1 1016.1 0.0
21/06:00pm 14.3 14.1 13.6 96 0.4 N 7 9 4 5 1016.3 1016.3 0.0
21/05:30pm 15.7 16.5 14.7 94 0.6 W 4 6 2 3 1016.2 1016.2 0.0
21/05:00pm 17.2 17.0 13.7 80 2.0 WNW 7 9 4 5 1016.1 1016.1 0.0

Other Formats:

Comma delimited format used in spreadsheet applications
http://www.bom.gov.au/fwo/IDN60801/IDN60801.94776.axf

JavaScript Object Notation format (JSON) in row-major order
http://www.bom.gov.au/fwo/IDN60801/IDN60801.94776.json